Time;durP1;ratioP1;P1;durP2;ratioP2;P2;SDS_P1;SDS_P2;PMS_P1;PMS_P2;Temp;Humidity;BMP_temperature;BMP_pressure;BME280_temperature;BME280_humidity;BME280_pressure;Samples;Min_cycle;Max_cycle;Signal;HPM_P1;HPM_P2
2022/08/18 00:01:16;;;;;;;13.83;12.67;;;24.80;47.40;;;;;;5029218;28;20555;-66
2022/08/18 00:03:43;;;;;;;14.50;13.30;;;24.80;47.40;;;;;;5027955;28;20512;-72
2022/08/18 00:06:09;;;;;;;14.50;13.10;;;24.80;47.40;;;;;;5021928;28;20228;-68
2022/08/18 00:08:34;;;;;;;14.53;13.27;;;24.80;47.50;;;;;;5022346;28;20487;-64
2022/08/18 00:11:00;;;;;;;17.40;12.93;;;24.80;47.40;;;;;;5027567;28;20225;-71
2022/08/18 00:13:26;;;;;;;13.50;12.40;;;24.80;47.40;;;;;;5029347;28;20733;-67
2022/08/18 00:15:51;;;;;;;13.20;12.20;;;24.80;47.40;;;;;;5034919;28;20222;-67
2022/08/18 00:18:17;;;;;;;13.83;12.73;;;24.80;47.40;;;;;;5020660;28;20641;-65
2022/08/18 00:20:43;;;;;;;14.03;13.00;;;24.80;47.40;;;;;;5029220;28;20309;-72
2022/08/18 00:23:08;;;;;;;12.50;11.60;;;24.80;47.50;;;;;;5028172;28;20233;-72
2022/08/18 00:25:34;;;;;;;13.90;12.80;;;24.80;47.40;;;;;;5028220;28;20930;-64
2022/08/18 00:28:00;;;;;;;13.53;12.43;;;24.80;47.50;;;;;;5028101;28;20296;-68
2022/08/18 00:30:26;;;;;;;14.20;13.00;;;24.80;47.40;;;;;;5033103;28;20458;-66
2022/08/18 00:32:56;;;;;;;14.53;13.23;;;24.80;47.40;;;;;;5029127;28;20230;-70
2022/08/18 00:35:25;;;;;;;14.03;12.87;;;24.80;47.40;;;;;;5028231;28;20679;-65
2022/08/18 00:37:53;;;;;;;13.70;12.60;;;24.80;47.40;;;;;;5025357;28;20457;-67
2022/08/18 00:40:22;;;;;;;14.00;12.80;;;24.80;47.50;;;;;;5028846;28;20589;-66
2022/08/18 00:42:52;;;;;;;15.67;14.33;;;24.80;47.50;;;;;;5023078;28;20875;-65
2022/08/18 00:45:29;;;;;;;14.37;13.23;;;24.80;47.50;;;;;;5033154;28;20496;-64
2022/08/18 00:47:55;;;;;;;13.80;12.60;;;24.80;47.40;;;;;;5028036;28;20566;-65
2022/08/18 00:50:46;;;;;;;14.00;12.90;;;24.80;47.50;;;;;;5013843;28;21007;-71
2022/08/18 00:53:18;;;;;;;15.23;13.67;;;24.80;47.50;;;;;;5025711;28;20641;-67
2022/08/18 00:55:47;;;;;;;15.13;13.87;;;24.80;47.60;;;;;;5024168;28;20469;-71
2022/08/18 00:58:28;;;;;;;14.90;13.50;;;24.80;47.50;;;;;;5026800;28;20470;-66
2022/08/18 01:00:54;;;;;;;14.47;13.20;;;24.80;47.50;;;;;;5040978;28;20478;-67
2022/08/18 01:03:21;;;;;;;14.20;13.00;;;24.80;47.50;;;;;;5040914;28;20454;-67
2022/08/18 01:05:57;;;;;;;15.47;14.10;;;24.80;47.50;;;;;;5044630;28;20221;-73
2022/08/18 01:08:24;;;;;;;15.87;14.57;;;24.80;47.50;;;;;;5040719;28;20467;-64
2022/08/18 01:10:50;;;;;;;15.47;14.07;;;24.80;48.30;;;;;;5039064;28;20507;-66
2022/08/18 01:13:16;;;;;;;14.63;13.43;;;24.80;47.50;;;;;;5029736;28;20825;-66
2022/08/18 01:15:41;;;;;;;15.00;13.60;;;24.80;47.60;;;;;;5038478;28;20363;-73
2022/08/18 01:23:52;;;;;;;15.20;13.90;;;24.80;48.30;;;;;;5036128;28;21242;-65
2022/08/18 01:26:20;;;;;;;15.37;13.97;;;24.70;47.60;;;;;;5048545;28;21040;-64
2022/08/18 01:28:48;;;;;;;15.33;13.93;;;24.70;47.60;;;;;;5031106;28;20462;-68
2022/08/18 01:31:32;;;;;;;15.50;14.20;;;24.70;47.60;;;;;;5046321;28;20599;-64
2022/08/18 01:33:59;;;;;;;14.50;13.30;;;24.70;47.50;;;;;;5035760;28;20454;-64
2022/08/18 01:36:25;;;;;;;16.10;14.70;;;24.70;47.60;;;;;;5034568;28;20478;-69
2022/08/18 01:38:52;;;;;;;15.67;14.20;;;24.80;47.60;;;;;;5028107;28;20471;-65
2022/08/18 01:41:21;;;;;;;14.73;13.47;;;24.70;47.60;;;;;;5045144;28;20313;-64
2022/08/18 01:43:47;;;;;;;16.20;14.70;;;24.70;47.50;;;;;;5038086;28;20486;-66
2022/08/18 01:46:18;;;;;;;15.63;14.30;;;24.70;47.60;;;;;;5039656;28;20455;-64
2022/08/18 01:48:45;;;;;;;15.90;14.50;;;24.70;48.30;;;;;;5033158;28;21037;-67
2022/08/18 01:51:12;;;;;;;15.50;14.10;;;24.70;47.60;;;;;;5039475;28;20454;-71
2022/08/18 01:53:38;;;;;;;15.27;13.97;;;24.70;47.60;;;;;;5028623;28;20531;-64
2022/08/18 01:56:05;;;;;;;15.90;14.40;;;24.70;47.60;;;;;;5023849;28;21029;-66
2022/08/18 01:58:32;;;;;;;16.47;14.97;;;24.70;47.60;;;;;;5028392;28;20549;-63
2022/08/18 02:01:00;;;;;;;14.63;13.30;;;24.70;47.60;;;;;;5028099;28;20464;-63
2022/08/18 02:03:38;;;;;;;15.57;13.97;;;24.70;47.60;;;;;;5036832;28;20459;-65
2022/08/18 02:06:08;;;;;;;15.37;13.97;;;24.70;47.60;;;;;;5045681;28;20462;-65
2022/08/18 02:08:34;;;;;;;15.20;13.90;;;24.70;47.60;;;;;;5049258;28;20523;-68
2022/08/18 02:11:02;;;;;;;18.17;14.63;;;24.70;47.60;;;;;;5044151;28;22744;-64
2022/08/18 02:13:28;;;;;;;16.03;14.63;;;24.70;47.60;;;;;;5046436;28;20217;-64
2022/08/18 02:15:54;;;;;;;15.17;13.80;;;24.70;47.60;;;;;;5043999;28;21002;-74
2022/08/18 02:18:23;;;;;;;15.30;13.90;;;24.70;47.60;;;;;;5045580;28;20562;-65
2022/08/18 02:20:49;;;;;;;16.63;15.00;;;24.70;47.60;;;;;;5032726;28;20909;-68
2022/08/18 02:23:16;;;;;;;15.87;14.37;;;24.70;47.60;;;;;;5040511;28;20520;-69
2022/08/18 02:25:42;;;;;;;17.17;15.37;;;24.70;47.60;;;;;;5031042;28;20354;-70
2022/08/18 02:28:08;;;;;;;16.97;15.20;;;24.70;47.60;;;;;;5029849;28;20455;-68
2022/08/18 02:30:38;;;;;;;16.20;14.70;;;24.70;47.60;;;;;;5034205;28;20519;-65
2022/08/18 02:33:05;;;;;;;17.00;15.40;;;24.70;47.60;;;;;;5030745;28;20228;-66
2022/08/18 02:35:31;;;;;;;14.80;13.50;;;24.70;47.60;;;;;;5052748;28;20470;-67
2022/08/18 02:38:03;;;;;;;17.20;15.43;;;24.70;47.70;;;;;;5043912;28;20455;-67
2022/08/18 02:40:28;;;;;;;16.77;15.17;;;24.70;47.60;;;;;;5043277;28;20502;-65
2022/08/18 02:42:54;;;;;;;17.70;15.83;;;24.70;47.70;;;;;;5025575;28;20555;-66
2022/08/18 02:45:22;;;;;;;17.27;15.53;;;24.70;47.70;;;;;;5028726;28;20226;-68
2022/08/18 02:47:55;;;;;;;17.00;15.20;;;24.70;47.70;;;;;;5033088;28;20251;-69
2022/08/18 02:50:21;;;;;;;15.40;14.00;;;24.70;47.70;;;;;;5038770;28;20873;-67
2022/08/18 02:52:47;;;;;;;17.30;15.50;;;24.70;47.70;;;;;;5036519;28;21072;-68
2022/08/18 02:55:14;;;;;;;17.27;14.83;;;24.70;47.70;;;;;;5029110;28;20552;-72
2022/08/18 02:57:42;;;;;;;16.30;14.70;;;24.70;47.70;;;;;;5030527;28;20487;-64
2022/08/18 03:00:11;;;;;;;16.17;14.53;;;24.70;47.70;;;;;;5032782;28;20470;-68
2022/08/18 03:02:37;;;;;;;17.00;15.30;;;24.70;47.80;;;;;;5035558;28;20468;-64
2022/08/18 03:05:03;;;;;;;17.93;16.07;;;24.70;47.70;;;;;;5044235;28;21735;-71
2022/08/18 03:07:29;;;;;;;17.97;15.70;;;24.70;47.80;;;;;;5049598;28;20228;-64
2022/08/18 03:09:54;;;;;;;18.17;15.53;;;24.70;47.80;;;;;;5041453;28;20466;-65
2022/08/18 03:12:20;;;;;;;16.03;14.33;;;24.70;47.70;;;;;;5041095;28;20225;-71
2022/08/18 03:14:46;;;;;;;17.03;14.57;;;24.70;47.80;;;;;;5032699;28;20357;-67
2022/08/18 03:17:13;;;;;;;14.90;13.50;;;24.70;47.80;;;;;;5031316;28;20288;-69
2022/08/18 03:19:39;;;;;;;15.67;14.00;;;24.70;47.80;;;;;;5046491;28;20253;-64
2022/08/18 03:22:07;;;;;;;16.40;14.80;;;24.70;47.80;;;;;;5051140;28;20446;-71
2022/08/18 03:24:33;;;;;;;16.00;14.50;;;24.70;47.80;;;;;;5049495;28;20824;-69
2022/08/18 03:27:02;;;;;;;15.10;13.60;;;24.70;47.80;;;;;;5051641;28;20457;-64
2022/08/18 03:29:28;;;;;;;15.13;13.77;;;24.70;47.80;;;;;;5034481;28;20467;-64
2022/08/18 03:31:53;;;;;;;16.47;14.87;;;24.70;47.80;;;;;;5035446;28;20466;-65
2022/08/18 03:34:19;;;;;;;15.17;13.67;;;24.70;47.90;;;;;;5036557;28;20881;-65
2022/08/18 03:36:47;;;;;;;13.03;11.80;;;24.70;47.80;;;;;;5038626;28;20300;-65
2022/08/18 03:39:13;;;;;;;14.00;12.67;;;24.70;47.90;;;;;;5048681;28;20329;-65
2022/08/18 03:41:42;;;;;;;13.97;12.67;;;24.70;47.80;;;;;;5050388;28;20442;-66
2022/08/18 03:44:09;;;;;;;13.40;12.20;;;24.70;47.90;;;;;;5046992;28;20456;-69
2022/08/18 03:46:34;;;;;;;14.40;13.10;;;24.70;47.90;;;;;;5040292;28;20478;-65
2022/08/18 03:49:01;;;;;;;13.73;12.43;;;24.70;47.90;;;;;;5036298;28;20462;-65
2022/08/18 03:51:30;;;;;;;13.20;12.07;;;24.70;47.90;;;;;;5043966;28;20684;-66
2022/08/18 03:53:59;;;;;;;13.77;12.40;;;24.70;47.90;;;;;;5042839;28;20466;-66
2022/08/18 03:56:32;;;;;;;13.83;12.47;;;24.70;47.90;;;;;;5037321;28;20473;-66
2022/08/18 03:59:01;;;;;;;12.87;11.67;;;24.70;47.90;;;;;;5043422;28;20483;-65
2022/08/18 04:01:31;;;;;;;12.53;11.33;;;24.70;47.90;;;;;;5039244;28;20454;-65
2022/08/18 04:04:03;;;;;;;12.60;11.50;;;24.70;47.90;;;;;;5041618;28;20988;-65
2022/08/18 04:06:39;;;;;;;12.20;11.13;;;24.70;47.90;;;;;;5041710;28;20465;-64
2022/08/18 04:09:08;;;;;;;12.97;11.77;;;24.70;47.90;;;;;;5027474;28;23118;-68
2022/08/18 04:11:36;;;;;;;12.20;11.10;;;24.70;47.90;;;;;;5033174;28;20475;-68
2022/08/18 04:14:02;;;;;;;11.93;10.83;;;24.70;47.90;;;;;;5035857;28;20499;-67
2022/08/18 04:16:31;;;;;;;12.53;11.33;;;24.70;48.00;;;;;;5033034;28;20550;-66
2022/08/18 04:19:00;;;;;;;12.67;11.40;;;24.70;48.00;;;;;;5033569;28;20499;-66
2022/08/18 04:21:26;;;;;;;12.63;11.53;;;24.70;48.00;;;;;;5038582;28;20528;-66
2022/08/18 04:23:51;;;;;;;11.00;10.00;;;24.70;48.00;;;;;;5037387;28;20467;-72
2022/08/18 04:26:18;;;;;;;10.83;9.90;;;24.70;48.00;;;;;;5031577;28;20272;-68
2022/08/18 04:28:44;;;;;;;11.10;10.10;;;24.70;47.90;;;;;;5032848;28;20283;-67
2022/08/18 04:31:13;;;;;;;12.73;11.40;;;24.70;48.00;;;;;;5031663;28;20969;-74
2022/08/18 04:33:39;;;;;;;12.17;11.20;;;24.70;48.00;;;;;;5038322;28;20218;-72
2022/08/18 04:36:11;;;;;;;12.70;11.50;;;24.70;48.00;;;;;;5023042;28;21448;-69
2022/08/18 04:38:37;;;;;;;11.43;10.40;;;24.70;48.00;;;;;;5033242;28;21053;-68
2022/08/18 04:41:04;;;;;;;11.90;10.87;;;24.70;48.00;;;;;;5039495;28;20459;-68
2022/08/18 04:43:30;;;;;;;11.63;10.60;;;24.70;47.90;;;;;;5041440;28;20489;-67
2022/08/18 04:46:00;;;;;;;11.30;10.30;;;24.70;48.00;;;;;;5039271;28;20995;-68
2022/08/18 04:48:32;;;;;;;11.60;10.67;;;24.70;47.90;;;;;;5027773;28;20225;-67
2022/08/18 04:51:11;;;;;;;11.90;10.77;;;24.70;48.00;;;;;;5041054;28;20519;-69
2022/08/18 04:53:44;;;;;;;11.17;10.27;;;24.70;48.00;;;;;;5028939;28;20544;-72
2022/08/18 04:56:19;;;;;;;10.77;9.83;;;24.70;48.00;;;;;;5030344;28;20855;-74
2022/08/18 04:58:50;;;;;;;11.63;10.53;;;24.70;48.70;;;;;;5036923;28;20462;-66
2022/08/18 05:01:17;;;;;;;11.17;10.13;;;24.70;48.00;;;;;;5036781;28;20624;-66
2022/08/18 05:03:43;;;;;;;11.17;10.10;;;24.70;48.00;;;;;;5038670;28;20470;-69
2022/08/18 05:06:09;;;;;;;11.23;10.30;;;24.70;48.00;;;;;;5030771;28;20454;-66
2022/08/18 05:08:35;;;;;;;12.27;11.10;;;24.70;48.00;;;;;;5042419;28;20477;-65
2022/08/18 05:11:00;;;;;;;11.47;10.57;;;24.70;48.00;;;;;;5044222;28;20222;-65
2022/08/18 05:13:26;;;;;;;11.97;10.90;;;24.70;47.90;;;;;;5047426;28;20229;-68
2022/08/18 05:15:56;;;;;;;12.07;10.87;;;24.70;48.00;;;;;;5037207;28;20217;-67
2022/08/18 05:18:23;;;;;;;11.33;10.50;;;24.70;48.00;;;;;;5047061;28;20249;-70
2022/08/18 05:20:54;;;;;;;10.53;9.70;;;24.70;48.00;;;;;;5047955;28;20450;-70
2022/08/18 05:23:20;;;;;;;10.37;9.57;;;24.70;48.00;;;;;;5046258;28;20454;-68
2022/08/18 05:25:46;;;;;;;10.40;9.50;;;24.70;48.00;;;;;;5039609;28;20538;-68
2022/08/18 05:28:13;;;;;;;11.57;10.47;;;24.70;48.00;;;;;;5032429;28;21143;-71
2022/08/18 05:30:40;;;;;;;10.77;9.87;;;24.70;48.00;;;;;;5032132;28;20217;-72
2022/08/18 05:33:10;;;;;;;9.80;9.10;;;24.70;47.90;;;;;;5029826;28;20956;-72
2022/08/18 05:35:49;;;;;;;11.03;10.03;;;24.70;47.90;;;;;;5030707;28;20467;-66
2022/08/18 05:38:34;;;;;;;10.97;9.97;;;24.70;47.90;;;;;;5048299;28;20457;-66
2022/08/18 05:41:12;;;;;;;10.27;9.30;;;24.70;47.90;;;;;;5048025;28;20451;-65
2022/08/18 05:43:40;;;;;;;10.60;9.80;;;24.70;47.90;;;;;;5043148;28;20946;-66
2022/08/18 05:46:08;;;;;;;10.50;9.80;;;24.70;47.90;;;;;;5039628;28;20453;-66
2022/08/18 05:48:34;;;;;;;11.00;10.03;;;24.70;47.90;;;;;;5052548;28;20458;-65
2022/08/18 05:51:09;;;;;;;11.03;10.10;;;24.70;47.90;;;;;;5042492;28;20465;-65
2022/08/18 05:59:12;;;;;;;12.37;11.27;;;24.70;48.00;;;;;;5048058;28;20512;-70
2022/08/18 06:01:45;;;;;;;11.13;10.13;;;24.70;48.00;;;;;;5050705;28;20449;-67
2022/08/18 06:04:25;;;;;;;12.07;11.00;;;24.70;48.00;;;;;;5051898;28;20454;-66
2022/08/18 06:06:52;;;;;;;10.83;9.93;;;24.70;48.00;;;;;;5050484;28;20463;-70
2022/08/18 06:09:31;;;;;;;10.73;9.80;;;24.70;48.10;;;;;;5048494;28;20450;-71
2022/08/18 06:12:16;;;;;;;12.10;11.00;;;24.70;48.00;;;;;;5047531;28;20469;-64
2022/08/18 06:14:41;;;;;;;11.30;10.33;;;24.70;48.00;;;;;;5049564;28;20468;-63
2022/08/18 06:17:33;;;;;;;10.40;9.50;;;24.70;48.00;;;;;;5049969;28;20800;-64
2022/08/18 06:20:16;;;;;;;12.27;11.27;;;24.70;48.00;;;;;;5047845;28;20274;-62
2022/08/18 06:23:03;;;;;;;11.50;10.43;;;24.70;48.00;;;;;;5050522;28;20478;-67
2022/08/18 06:25:33;;;;;;;12.90;9.90;;;24.70;48.00;;;;;;5049591;28;20461;-69
2022/08/18 06:28:11;;;;;;;12.77;11.43;;;24.70;48.10;;;;;;5045688;28;20472;-72
2022/08/18 06:30:54;;;;;;;11.10;10.00;;;24.70;48.10;;;;;;5046813;28;20484;-68
2022/08/18 06:33:31;;;;;;;12.77;11.43;;;24.70;48.10;;;;;;5039423;28;20467;-64
2022/08/18 06:36:07;;;;;;;10.60;9.43;;;24.70;48.20;;;;;;5045459;28;20461;-71
2022/08/18 06:38:52;;;;;;;13.23;10.63;;;24.70;48.20;;;;;;5040667;28;20477;-62
2022/08/18 06:41:19;;;;;;;9.47;8.77;;;24.70;48.10;;;;;;5051569;28;20460;-61
2022/08/18 06:44:04;;;;;;;9.87;8.97;;;24.70;48.10;;;;;;5050867;28;20608;-74
2022/08/18 06:46:49;;;;;;;9.60;8.80;;;24.70;48.20;;;;;;5046506;28;20469;-65
2022/08/18 06:49:30;;;;;;;10.30;9.50;;;24.70;48.10;;;;;;5027334;28;20875;-66
2022/08/18 06:51:56;;;;;;;16.93;14.70;;;24.70;48.10;;;;;;5044517;28;20560;-67
2022/08/18 06:54:21;;;;;;;16.63;13.77;;;24.70;48.00;;;;;;5046163;28;21597;-65
2022/08/18 06:56:51;;;;;;;17.13;13.20;;;24.70;47.70;;;;;;5053114;28;20221;-64
2022/08/18 06:59:33;;;;;;;15.83;14.13;;;24.70;47.60;;;;;;5044145;28;20261;-66
2022/08/18 07:02:13;;;;;;;15.33;13.73;;;24.70;47.50;;;;;;5050459;28;20504;-68
2022/08/18 07:04:57;;;;;;;14.10;12.70;;;24.70;47.30;;;;;;5056938;28;20489;-71
2022/08/18 07:07:35;;;;;;;14.90;12.97;;;24.70;47.20;;;;;;5042517;28;20471;-65
2022/08/18 07:10:02;;;;;;;14.63;13.00;;;24.70;47.10;;;;;;5041215;28;20900;-67
2022/08/18 07:12:29;;;;;;;10.60;9.60;;;24.70;47.00;;;;;;5053260;28;21756;-65
2022/08/18 07:15:01;;;;;;;10.30;9.40;;;24.70;47.00;;;;;;5037894;28;20820;-67
2022/08/18 07:17:29;;;;;;;9.07;8.47;;;24.70;47.10;;;;;;5043875;28;20462;-64
2022/08/18 07:19:59;;;;;;;9.67;8.77;;;24.70;47.10;;;;;;5041207;28;21037;-67
2022/08/18 07:22:25;;;;;;;10.03;9.23;;;24.70;47.20;;;;;;5047397;28;20458;-62
2022/08/18 07:24:57;;;;;;;9.80;9.00;;;24.70;47.20;;;;;;5040236;28;20469;-64
2022/08/18 07:27:48;;;;;;;10.00;9.00;;;24.70;47.30;;;;;;5054436;28;20513;-63
2022/08/18 07:30:18;;;;;;;10.40;9.50;;;24.70;47.30;;;;;;5057215;28;20476;-65
2022/08/18 07:32:46;;;;;;;10.17;9.37;;;24.70;47.40;;;;;;5047785;28;21001;-62
2022/08/18 07:35:16;;;;;;;10.23;9.33;;;24.70;47.40;;;;;;5045608;28;20447;-65
2022/08/18 07:37:46;;;;;;;9.73;8.93;;;24.70;47.40;;;;;;5042078;28;20494;-64
2022/08/18 07:40:20;;;;;;;10.00;9.07;;;24.70;47.50;;;;;;5039632;28;20455;-66
2022/08/18 07:43:01;;;;;;;11.57;9.60;;;24.70;47.50;;;;;;5033110;28;21068;-66
2022/08/18 07:45:32;;;;;;;10.80;9.80;;;24.70;47.60;;;;;;5039477;28;20504;-66
2022/08/18 07:48:12;;;;;;;11.57;9.70;;;24.70;47.60;;;;;;5036682;28;20455;-68
2022/08/18 07:51:09;;;;;;;9.37;8.60;;;24.70;47.70;;;;;;5037773;28;20820;-66
2022/08/18 07:53:57;;;;;;;12.43;10.93;;;24.70;47.70;;;;;;5041353;28;20515;-64
2022/08/18 07:56:45;;;;;;;10.90;10.03;;;24.70;47.80;;;;;;5021303;28;20491;-70
2022/08/18 07:59:17;;;;;;;12.13;9.90;;;24.70;47.80;;;;;;5033430;28;20456;-65
2022/08/18 08:01:51;;;;;;;11.40;10.47;;;24.70;47.90;;;;;;5032162;28;20566;-70
2022/08/18 08:04:45;;;;;;;10.03;9.13;;;24.70;47.90;;;;;;5028652;28;20464;-66
2022/08/18 08:07:24;;;;;;;9.43;8.73;;;24.70;47.90;;;;;;5041448;28;20496;-65
2022/08/18 08:10:24;;;;;;;10.40;9.60;;;24.70;48.00;;;;;;5041730;28;20503;-66
2022/08/18 08:13:04;;;;;;;12.27;11.17;;;24.70;47.90;;;;;;5017917;28;20466;-64
2022/08/18 08:15:42;;;;;;;11.57;10.57;;;24.70;48.00;;;;;;5023774;28;20471;-76
2022/08/18 08:18:14;;;;;;;11.10;10.20;;;24.70;48.10;;;;;;5040410;28;20629;-63
2022/08/18 08:20:44;;;;;;;10.60;9.70;;;24.70;48.10;;;;;;5037774;28;20470;-69
2022/08/18 08:23:23;;;;;;;10.83;9.90;;;24.70;48.10;;;;;;5044909;28;20449;-68
2022/08/18 08:26:15;;;;;;;10.83;9.83;;;24.70;48.20;;;;;;5049654;28;20564;-67
2022/08/18 08:29:13;;;;;;;9.83;9.03;;;24.70;48.10;;;;;;5037149;28;20490;-67
2022/08/18 08:31:56;;;;;;;9.30;8.60;;;24.70;48.20;;;;;;5039814;28;20467;-76
2022/08/18 08:34:53;;;;;;;9.53;8.73;;;24.70;48.20;;;;;;5027946;28;20525;-63
2022/08/18 08:37:34;;;;;;;9.80;8.93;;;24.70;48.20;;;;;;5034031;28;20454;-63
2022/08/18 08:40:08;;;;;;;8.90;8.23;;;24.60;48.20;;;;;;5030249;28;20537;-64
2022/08/18 08:42:48;;;;;;;10.70;9.70;;;24.70;48.30;;;;;;5036011;28;20452;-72
2022/08/18 08:45:34;;;;;;;8.63;7.90;;;24.70;48.30;;;;;;5047597;28;20563;-63
2022/08/18 08:48:19;;;;;;;8.27;7.70;;;24.70;48.30;;;;;;5051798;28;20490;-63
2022/08/18 08:50:51;;;;;;;8.67;7.97;;;24.60;48.20;;;;;;5049403;28;20463;-66
2022/08/18 08:53:27;;;;;;;8.00;7.40;;;24.60;48.20;;;;;;5035393;28;20443;-63
2022/08/18 08:55:58;;;;;;;8.67;7.90;;;24.60;48.20;;;;;;5042757;28;20455;-67
2022/08/18 08:58:41;;;;;;;7.30;6.80;;;24.60;48.20;;;;;;5034325;28;20463;-62
2022/08/18 09:01:21;;;;;;;7.70;7.20;;;24.70;48.30;;;;;;5029379;28;20474;-77
2022/08/18 09:04:06;;;;;;;7.20;6.80;;;24.60;48.20;;;;;;5033944;28;20482;-66
2022/08/18 09:07:07;;;;;;;7.90;7.40;;;24.60;48.20;;;;;;5027541;28;20521;-63
2022/08/18 09:09:48;;;;;;;7.23;6.77;;;24.60;48.20;;;;;;5009274;28;22574;-64
2022/08/18 09:12:25;;;;;;;7.13;6.63;;;24.60;48.20;;;;;;5023039;28;20462;-64
2022/08/18 09:15:28;;;;;;;6.30;6.00;;;24.60;48.20;;;;;;5025751;28;20456;-66
2022/08/18 09:18:14;;;;;;;6.97;6.57;;;24.60;48.20;;;;;;5023531;28;21279;-75
2022/08/18 09:21:00;;;;;;;6.60;6.30;;;24.60;48.20;;;;;;5027117;28;20486;-66
2022/08/18 09:23:38;;;;;;;6.80;6.50;;;24.60;48.10;;;;;;5023736;28;20976;-68
2022/08/18 09:26:21;;;;;;;6.73;6.33;;;24.60;48.20;;;;;;5032734;28;20466;-64
2022/08/18 09:29:04;;;;;;;7.07;6.57;;;24.60;48.20;;;;;;5020056;28;20462;-78
2022/08/18 09:31:30;;;;;;;5.70;5.33;;;24.60;48.10;;;;;;5030628;28;21579;-65
2022/08/18 09:34:08;;;;;;;6.03;5.73;;;24.60;48.00;;;;;;5029777;28;20465;-71
2022/08/18 09:36:42;;;;;;;6.60;6.27;;;24.60;48.00;;;;;;5022236;28;20309;-64
2022/08/18 09:43:05;;;;;;;6.23;5.93;;;24.60;48.00;;;;;;5031800;28;20498;-70
2022/08/18 09:45:30;;;;;;;5.57;5.27;;;24.70;48.00;;;;;;4945466;28;20590;-71
2022/08/18 09:48:11;;;;;;;7.30;6.80;;;24.60;48.00;;;;;;5023411;28;20458;-73
2022/08/18 09:50:56;;;;;;;6.77;6.37;;;24.60;47.90;;;;;;5029966;28;20229;-64
2022/08/18 09:53:53;;;;;;;6.17;5.80;;;24.60;47.90;;;;;;5038652;28;20501;-71
2022/08/18 09:56:50;;;;;;;6.60;6.20;;;24.60;47.90;;;;;;5025828;28;20540;-75
2022/08/18 09:59:52;;;;;;;6.10;5.50;;;24.60;47.90;;;;;;5026417;28;20454;-75
2022/08/18 10:02:30;;;;;;;6.20;5.80;;;24.60;48.00;;;;;;5025170;28;20470;-68
2022/08/18 10:05:14;;;;;;;6.60;6.10;;;24.60;47.90;;;;;;5026938;28;20991;-67
2022/08/18 10:07:43;;;;;;;6.00;5.60;;;24.60;47.90;;;;;;5027455;28;20470;-62
2022/08/18 10:10:28;;;;;;;6.23;5.83;;;24.60;48.00;;;;;;5017734;28;20541;-64
2022/08/18 10:13:12;;;;;;;6.10;5.80;;;24.60;47.90;;;;;;5028035;28;20479;-69
2022/08/18 10:16:00;;;;;;;6.00;5.70;;;24.60;47.90;;;;;;5029281;28;20458;-64
2022/08/18 10:18:39;;;;;;;6.40;6.00;;;24.60;48.00;;;;;;5038167;28;20464;-67
2022/08/18 10:21:26;;;;;;;6.03;5.73;;;24.60;47.90;;;;;;5037583;28;20493;-74
2022/08/18 10:24:04;;;;;;;6.23;5.83;;;24.60;47.90;;;;;;5039466;28;20455;-67
2022/08/18 10:26:29;;;;;;;5.97;5.67;;;24.60;47.90;;;;;;5039847;28;20460;-68
2022/08/18 10:29:10;;;;;;;6.53;6.13;;;24.60;48.00;;;;;;5031505;28;20462;-63
2022/08/18 10:31:54;;;;;;;6.63;6.13;;;24.60;47.90;;;;;;5030293;28;21015;-62
2022/08/18 10:34:56;;;;;;;6.27;5.87;;;24.60;47.80;;;;;;5059983;28;20467;-63
2022/08/18 10:37:41;;;;;;;5.70;5.40;;;24.60;47.90;;;;;;5044515;28;20945;-64
2022/08/18 10:40:09;;;;;;;6.20;5.90;;;24.60;47.90;;;;;;5034377;28;20972;-63
2022/08/18 10:42:40;;;;;;;5.80;5.50;;;24.60;47.90;;;;;;5032418;28;20507;-63
2022/08/18 10:45:22;;;;;;;6.27;5.87;;;24.60;47.90;;;;;;5036497;28;22608;-64
2022/08/18 10:48:12;;;;;;;5.87;5.50;;;24.60;47.90;;;;;;5034964;28;20463;-64
2022/08/18 10:50:55;;;;;;;6.13;5.83;;;24.60;47.80;;;;;;5037896;28;20455;-63
2022/08/18 10:53:39;;;;;;;6.20;5.90;;;24.60;47.90;;;;;;5035702;28;20451;-80
2022/08/18 10:56:22;;;;;;;6.50;6.00;;;24.60;47.80;;;;;;5034967;28;20463;-64
2022/08/18 10:59:05;;;;;;;6.00;5.60;;;24.60;47.80;;;;;;5033118;28;20561;-65
2022/08/18 11:02:14;;;;;;;6.33;6.03;;;24.60;47.90;;;;;;5049360;28;20541;-67
2022/08/18 11:04:48;;;;;;;6.30;5.83;;;24.60;47.90;;;;;;5044332;28;20461;-79
2022/08/18 11:07:20;;;;;;;5.90;5.60;;;24.60;47.90;;;;;;5042580;28;20458;-72
2022/08/18 11:09:50;;;;;;;6.37;6.07;;;24.60;47.80;;;;;;5044603;28;20521;-71
2022/08/18 11:12:56;;;;;;;6.13;5.83;;;24.60;47.90;;;;;;5037580;28;20532;-65
2022/08/18 11:15:38;;;;;;;5.93;5.63;;;24.60;48.60;;;;;;5032381;28;21057;-79
2022/08/18 11:18:15;;;;;;;5.77;5.47;;;24.60;47.80;;;;;;5035558;28;20964;-73
2022/08/18 11:20:42;;;;;;;6.20;5.80;;;24.60;47.80;;;;;;5048104;28;20461;-66
2022/08/18 11:23:14;;;;;;;6.70;6.40;;;24.60;47.80;;;;;;5046030;28;20543;-82
2022/08/18 11:25:40;;;;;;;5.80;5.50;;;24.50;47.70;;;;;;5048978;28;20492;-73
2022/08/18 11:28:22;;;;;;;6.57;6.17;;;24.60;47.80;;;;;;5045032;28;20538;-67
2022/08/18 11:30:52;;;;;;;6.73;6.43;;;24.60;47.80;;;;;;5045134;28;20816;-68
2022/08/18 11:33:20;;;;;;;6.10;5.80;;;24.60;48.50;;;;;;5039953;28;20492;-76
2022/08/18 11:35:56;;;;;;;6.47;6.07;;;24.60;47.80;;;;;;5047060;28;20469;-76
2022/08/18 11:38:22;;;;;;;6.03;5.73;;;24.60;47.70;;;;;;5043725;28;20542;-80
2022/08/18 11:41:28;;;;;;;5.70;5.37;;;24.60;47.70;;;;;;5042922;28;20825;-67
2022/08/18 11:43:58;;;;;;;5.40;5.20;;;24.60;47.70;;;;;;4967616;28;20303;-65
2022/08/18 11:46:31;;;;;;;6.20;5.80;;;24.60;47.70;;;;;;4948510;28;21322;-69
2022/08/18 11:48:59;;;;;;;6.00;5.70;;;24.60;47.70;;;;;;4987124;28;20549;-67
2022/08/18 11:51:30;;;;;;;6.57;6.17;;;24.60;47.70;;;;;;5026994;28;20461;-69
2022/08/18 11:54:32;;;;;;;6.10;5.70;;;24.60;47.80;;;;;;5034929;28;20502;-65
2022/08/18 11:57:38;;;;;;;5.90;5.60;;;24.60;47.70;;;;;;5046220;28;20461;-67
2022/08/18 12:00:36;;;;;;;5.97;5.47;;;24.60;47.70;;;;;;5044651;28;20523;-64
2022/08/18 12:03:16;;;;;;;6.63;6.13;;;24.60;47.80;;;;;;5043234;28;20473;-75
2022/08/18 12:05:53;;;;;;;5.67;5.17;;;24.60;47.80;;;;;;5053801;28;20474;-65
2022/08/18 12:08:34;;;;;;;4.40;4.20;;;24.60;47.80;;;;;;5052363;28;20470;-69
2022/08/18 12:11:04;;;;;;;4.67;4.37;;;24.60;47.80;;;;;;5041602;28;20878;-67
2022/08/18 12:13:30;;;;;;;5.07;4.67;;;24.60;47.80;;;;;;5044779;28;20481;-64
2022/08/18 12:16:12;;;;;;;4.40;4.20;;;24.60;47.90;;;;;;5051233;28;20952;-73
2022/08/18 12:18:38;;;;;;;4.30;4.10;;;24.60;47.90;;;;;;5044730;28;20226;-64
2022/08/18 12:21:04;;;;;;;3.70;3.50;;;24.60;47.90;;;;;;5056444;28;20973;-64
2022/08/18 12:23:33;;;;;;;4.67;4.33;;;24.60;47.90;;;;;;5044906;28;20225;-64
2022/08/18 12:25:58;;;;;;;4.60;4.40;;;24.60;47.90;;;;;;5062158;28;20534;-64
2022/08/18 12:28:26;;;;;;;4.40;4.20;;;24.60;47.90;;;;;;5045798;28;20539;-64
2022/08/18 12:30:52;;;;;;;4.87;4.67;;;24.60;47.80;;;;;;5035942;28;20221;-64
2022/08/18 12:33:17;;;;;;;5.60;5.30;;;24.60;47.90;;;;;;5053003;28;20468;-67
2022/08/18 12:35:43;;;;;;;5.77;5.47;;;24.60;47.90;;;;;;5048569;28;20949;-71
2022/08/18 12:38:09;;;;;;;5.60;5.30;;;24.60;47.80;;;;;;5052062;28;20252;-63
2022/08/18 12:40:35;;;;;;;5.40;5.20;;;24.60;48.20;;;;;;5052189;28;20232;-64
2022/08/18 12:43:01;;;;;;;6.87;6.47;;;24.60;47.80;;;;;;5058596;28;20819;-68
2022/08/18 12:45:27;;;;;;;6.00;5.70;;;24.60;47.80;;;;;;5060805;28;20232;-73
2022/08/18 12:47:53;;;;;;;6.53;6.23;;;24.70;47.80;;;;;;5059190;28;20218;-78
2022/08/18 12:50:19;;;;;;;6.87;6.53;;;24.70;47.80;;;;;;5053523;28;20446;-64
2022/08/18 12:52:45;;;;;;;6.50;6.10;;;24.60;47.70;;;;;;5049476;28;20957;-64
2022/08/18 12:55:11;;;;;;;6.80;6.40;;;24.70;47.80;;;;;;5048917;28;20229;-68
2022/08/18 12:57:36;;;;;;;7.60;6.90;;;24.70;47.80;;;;;;5050356;28;20439;-68
2022/08/18 13:00:04;;;;;;;7.20;6.70;;;24.70;47.80;;;;;;5034004;28;20803;-67
2022/08/18 13:02:29;;;;;;;6.83;6.47;;;24.70;47.80;;;;;;5032774;28;20226;-68
2022/08/18 13:04:55;;;;;;;6.83;6.53;;;24.70;47.70;;;;;;5031635;28;20462;-64
2022/08/18 13:07:20;;;;;;;7.20;6.77;;;24.70;47.70;;;;;;5039510;28;20221;-69
2022/08/18 13:09:46;;;;;;;7.07;6.47;;;24.70;47.70;;;;;;5028219;28;20218;-70
2022/08/18 13:12:12;;;;;;;6.97;6.57;;;24.70;47.70;;;;;;5025156;28;20214;-66
2022/08/18 13:14:38;;;;;;;7.43;6.80;;;24.70;47.70;;;;;;5013240;28;20272;-68
2022/08/18 13:17:04;;;;;;;7.43;7.03;;;24.70;47.70;;;;;;5032446;28;20562;-70
2022/08/18 13:19:30;;;;;;;7.90;7.47;;;24.70;47.70;;;;;;5034982;28;20484;-67
2022/08/18 13:21:56;;;;;;;8.10;7.70;;;24.70;47.80;;;;;;5023897;28;20247;-65